PWSweather.com
Personal Weather Stations
Station Observations
IMAZOWIE6
WarszawaPL

WarszawaPL

Lat: 52.27957, Lon: 21.05489

Elevation: 100

Station Type: WS1080

http://stacjapogody.waw.pl/

High Low Average
Temperature 48.7°F9.3°C 36.7°F2.6°C 41.1°F5.1°C
Dew Point -167.9°F-111.1°C -169.1°F-111.7°C -168.7°F-111.5°C
Winds Calm Calm Calm Calm Calm NCalm N
Wind Gusts 0.6 mph1.0 kmh -- --
Humidity - - -
Pressure 29.57 in1001.4 mb 29.26 in990.9 mb -
Precipitation 0.00 in0.0 mm - -
Hour Temp Dew Point Humidity Winds Wind Gusts Pressure Precip Precip Rate Daily Precip Total
12:01 AM 39.9°F4.4°C -168.8°F-111.6°C - Calm Calm -- 29.26 in990.9 mb 0.00 in0.0 mm 0.00 in0.0 mm 0.00 in0.0 mm
12:16 AM 39.7°F4.3°C -168.8°F-111.6°C - Calm Calm -- 29.27 in991.2 mb 0.00 in0.0 mm 0.00 in0.0 mm 0.00 in0.0 mm
12:31 AM 39.7°F4.3°C -168.8°F-111.6°C - Calm Calm -- 29.27 in991.2 mb 0.00 in0.0 mm 0.00 in0.0 mm 0.00 in0.0 mm
12:46 AM 39.9°F4.4°C -168.8°F-111.6°C - Calm Calm -- 29.27 in991.2 mb 0.00 in0.0 mm 0.00 in0.0 mm 0.00 in0.0 mm
01:01 AM 39.9°F4.4°C -168.8°F-111.6°C - Calm Calm -- 29.29 in991.9 mb 0.00 in0.0 mm 0.00 in0.0 mm 0.00 in0.0 mm
01:16 AM 39.9°F4.4°C -168.8°F-111.6°C - Calm Calm -- 29.29 in991.9 mb 0.00 in0.0 mm 0.00 in0.0 mm 0.00 in0.0 mm
01:31 AM 40.3°F4.6°C -168.8°F-111.6°C - Calm Calm -- 29.30 in992.2 mb 0.00 in0.0 mm 0.00 in0.0 mm 0.00 in0.0 mm
01:46 AM 40.3°F4.6°C -168.8°F-111.6°C - Calm Calm -- 29.31 in992.6 mb 0.00 in0.0 mm 0.00 in0.0 mm 0.00 in0.0 mm
02:01 AM 40.5°F4.7°C -168.8°F-111.6°C - Calm Calm -- 29.31 in992.6 mb 0.00 in0.0 mm 0.00 in0.0 mm 0.00 in0.0 mm
02:16 AM 40.6°F4.8°C -168.7°F-111.5°C - Calm Calm -- 29.31 in992.6 mb 0.00 in0.0 mm 0.00 in0.0 mm 0.00 in0.0 mm
02:31 AM 40.5°F4.7°C -168.8°F-111.6°C - Calm Calm -- 29.31 in992.6 mb 0.00 in0.0 mm 0.00 in0.0 mm 0.00 in0.0 mm
02:46 AM 40.5°F4.7°C -168.8°F-111.6°C - Calm Calm -- 29.32 in992.9 mb 0.00 in0.0 mm 0.00 in0.0 mm 0.00 in0.0 mm
03:01 AM 40.5°F4.7°C -168.8°F-111.6°C - Calm Calm -- 29.33 in993.2 mb 0.00 in0.0 mm 0.00 in0.0 mm 0.00 in0.0 mm
03:16 AM 40.5°F4.7°C -168.8°F-111.6°C - Calm Calm -- 29.34 in993.6 mb 0.00 in0.0 mm 0.00 in0.0 mm 0.00 in0.0 mm
03:31 AM 40.5°F4.7°C -168.8°F-111.6°C - Calm Calm -- 29.34 in993.6 mb 0.01 in0.3 mm 0.05 in1.3 mm 0.01 in0.3 mm
03:46 AM 40.3°F4.6°C -168.8°F-111.6°C - Calm Calm -- 29.36 in994.2 mb 0.01 in0.3 mm 0.00 in0.0 mm 0.01 in0.3 mm
04:01 AM 39.2°F4.0°C -168.9°F-111.6°C - Calm Calm -- 29.37 in994.6 mb 0.01 in0.3 mm 0.00 in0.0 mm 0.01 in0.3 mm
04:16 AM 38.5°F3.6°C -169.0°F-111.7°C - Calm Calm -- 29.38 in994.9 mb 0.00 in0.0 mm 0.00 in0.0 mm 0.01 in0.3 mm
04:31 AM 37.9°F3.3°C -169.0°F-111.7°C - Calm Calm -- 29.39 in995.3 mb 0.01 in0.3 mm 0.05 in1.3 mm 0.02 in0.5 mm
04:46 AM 37.2°F2.9°C -169.1°F-111.7°C - Calm Calm -- 29.40 in995.6 mb 0.01 in0.3 mm 0.00 in0.0 mm 0.02 in0.5 mm
05:01 AM 36.9°F2.7°C -169.1°F-111.7°C - Calm Calm -- 29.41 in995.9 mb 0.02 in0.5 mm 0.02 in0.5 mm 0.04 in1.0 mm
05:16 AM 36.7°F2.6°C -169.1°F-111.7°C - Calm Calm -- 29.42 in996.3 mb 0.00 in0.0 mm 0.00 in0.0 mm 0.04 in1.0 mm
05:31 AM 36.7°F2.6°C -169.1°F-111.7°C - Calm Calm -- 29.43 in996.6 mb 0.00 in0.0 mm 0.00 in0.0 mm 0.04 in1.0 mm
05:46 AM 36.7°F2.6°C -169.1°F-111.7°C - Calm Calm -- 29.43 in996.6 mb 0.00 in0.0 mm 0.00 in0.0 mm 0.04 in1.0 mm
06:01 AM 36.9°F2.7°C -169.1°F-111.7°C - Calm Calm -- 29.44 in997.0 mb 0.00 in0.0 mm 0.00 in0.0 mm 0.04 in1.0 mm
06:16 AM 36.9°F2.7°C -169.1°F-111.7°C - Calm Calm -- 29.44 in997.0 mb 0.00 in0.0 mm 0.00 in0.0 mm 0.04 in1.0 mm
06:31 AM 37.0°F2.8°C -169.1°F-111.7°C - Calm Calm -- 29.44 in997.0 mb 0.00 in0.0 mm 0.00 in0.0 mm 0.04 in1.0 mm
06:46 AM 37.2°F2.9°C -169.1°F-111.7°C - Calm Calm -- 29.46 in997.6 mb 0.00 in0.0 mm 0.00 in0.0 mm 0.04 in1.0 mm
07:01 AM 37.2°F2.9°C -169.1°F-111.7°C - Calm Calm -- 29.47 in998.0 mb 0.01 in0.3 mm 0.02 in0.5 mm 0.05 in1.3 mm
07:16 AM 37.4°F3.0°C -169.1°F-111.7°C - Calm Calm -- 29.47 in998.0 mb 0.00 in0.0 mm 0.00 in0.0 mm 0.05 in1.3 mm
07:31 AM 37.4°F3.0°C -169.1°F-111.7°C - Calm Calm -- 29.48 in998.3 mb 0.00 in0.0 mm 0.00 in0.0 mm 0.05 in1.3 mm
07:46 AM 37.4°F3.0°C -169.1°F-111.7°C - Calm Calm -- 29.49 in998.6 mb 0.00 in0.0 mm 0.00 in0.0 mm 0.05 in1.3 mm
08:01 AM 37.4°F3.0°C -169.1°F-111.7°C - Calm Calm -- 29.49 in998.6 mb 0.00 in0.0 mm 0.00 in0.0 mm 0.05 in1.3 mm
08:16 AM 37.4°F3.0°C -169.1°F-111.7°C - Calm Calm -- 29.50 in999.0 mb 0.01 in0.3 mm 0.05 in1.3 mm 0.06 in1.5 mm
08:31 AM 37.6°F3.1°C -169.0°F-111.7°C - Calm Calm -- 29.51 in999.3 mb 0.01 in0.3 mm 0.00 in0.0 mm 0.06 in1.5 mm
08:46 AM 37.8°F3.2°C -169.0°F-111.7°C - Calm Calm -- 29.52 in999.7 mb 0.01 in0.3 mm 0.00 in0.0 mm 0.06 in1.5 mm
09:01 AM 37.6°F3.1°C -169.0°F-111.7°C - Calm Calm -- 29.52 in999.7 mb 0.01 in0.3 mm 0.00 in0.0 mm 0.06 in1.5 mm
09:16 AM 37.6°F3.1°C -169.0°F-111.7°C - Calm Calm -- 29.53 in1000.0 mb 0.00 in0.0 mm 0.00 in0.0 mm 0.06 in1.5 mm
09:31 AM 37.9°F3.3°C -169.0°F-111.7°C - Calm Calm -- 29.53 in1000.0 mb 0.01 in0.3 mm 0.05 in1.3 mm 0.07 in1.8 mm
09:46 AM 38.1°F3.4°C -169.0°F-111.7°C - Calm Calm -- 29.53 in1000.0 mb 0.01 in0.3 mm 0.00 in0.0 mm 0.07 in1.8 mm
10:01 AM 38.3°F3.5°C -169.0°F-111.7°C - Calm Calm -- 29.54 in1000.3 mb 0.01 in0.3 mm 0.00 in0.0 mm 0.07 in1.8 mm
10:16 AM 38.7°F3.7°C -168.9°F-111.6°C - Calm Calm -- 29.55 in1000.7 mb 0.00 in0.0 mm 0.00 in0.0 mm 0.07 in1.8 mm
10:31 AM 39.0°F3.9°C -168.9°F-111.6°C - Calm Calm -- 29.55 in1000.7 mb 0.00 in0.0 mm 0.00 in0.0 mm 0.07 in1.8 mm
10:46 AM 39.4°F4.1°C -168.9°F-111.6°C - Calm Calm -- 29.55 in1000.7 mb 0.00 in0.0 mm 0.00 in0.0 mm 0.07 in1.8 mm
11:01 AM 39.9°F4.4°C -168.8°F-111.6°C - Calm Calm -- 29.55 in1000.7 mb 0.00 in0.0 mm 0.00 in0.0 mm 0.07 in1.8 mm
11:16 AM 41.0°F5.0°C -168.7°F-111.5°C - Calm Calm -- 29.56 in1001.0 mb 0.00 in0.0 mm 0.00 in0.0 mm 0.07 in1.8 mm
11:31 AM 41.9°F5.5°C -168.6°F-111.4°C - Calm Calm -- 29.56 in1001.0 mb 0.00 in0.0 mm 0.00 in0.0 mm 0.07 in1.8 mm
11:46 AM 43.2°F6.2°C -168.5°F-111.4°C - Calm Calm -- 29.57 in1001.4 mb 0.00 in0.0 mm 0.00 in0.0 mm 0.07 in1.8 mm
12:01 PM 43.9°F6.6°C -168.4°F-111.3°C - Calm Calm -- 29.57 in1001.4 mb 0.00 in0.0 mm 0.00 in0.0 mm 0.07 in1.8 mm
12:16 PM 45.0°F7.2°C -168.3°F-111.3°C - Calm Calm -- 29.57 in1001.4 mb 0.00 in0.0 mm 0.00 in0.0 mm 0.07 in1.8 mm
12:31 PM 45.3°F7.4°C -168.3°F-111.3°C - Calm Calm -- 29.56 in1001.0 mb 0.00 in0.0 mm 0.00 in0.0 mm 0.07 in1.8 mm
12:46 PM 44.8°F7.1°C -168.3°F-111.3°C - Calm Calm -- 29.56 in1001.0 mb 0.00 in0.0 mm 0.00 in0.0 mm 0.07 in1.8 mm
01:01 PM 44.8°F7.1°C -168.3°F-111.3°C - Calm Calm -- 29.57 in1001.4 mb 0.00 in0.0 mm 0.00 in0.0 mm 0.07 in1.8 mm
01:16 PM 45.3°F7.4°C -168.3°F-111.3°C - Calm Calm -- 29.56 in1001.0 mb 0.00 in0.0 mm 0.00 in0.0 mm 0.07 in1.8 mm
01:31 PM 46.6°F8.1°C -168.1°F-111.2°C - Calm Calm -- 29.56 in1001.0 mb 0.00 in0.0 mm 0.00 in0.0 mm 0.07 in1.8 mm
01:46 PM 46.2°F7.9°C -168.2°F-111.2°C - Calm Calm -- 29.56 in1001.0 mb 0.00 in0.0 mm 0.00 in0.0 mm 0.07 in1.8 mm
02:01 PM 46.0°F7.8°C -168.2°F-111.2°C - Calm Calm -- 29.55 in1000.7 mb 0.00 in0.0 mm 0.00 in0.0 mm 0.07 in1.8 mm
02:16 PM 46.8°F8.2°C -168.1°F-111.2°C - Calm Calm -- 29.55 in1000.7 mb 0.00 in0.0 mm 0.00 in0.0 mm 0.07 in1.8 mm
02:31 PM 47.3°F8.5°C -168.1°F-111.2°C - Calm Calm -- 29.55 in1000.7 mb 0.00 in0.0 mm 0.00 in0.0 mm 0.07 in1.8 mm
02:46 PM 48.0°F8.9°C -168.0°F-111.1°C - Calm Calm -- 29.55 in1000.7 mb 0.00 in0.0 mm 0.00 in0.0 mm 0.07 in1.8 mm
03:01 PM 48.7°F9.3°C -167.9°F-111.1°C - Calm Calm -- 29.55 in1000.7 mb 0.00 in0.0 mm 0.00 in0.0 mm 0.07 in1.8 mm
03:16 PM 48.4°F9.1°C -168.0°F-111.1°C - Calm Calm -- 29.55 in1000.7 mb 0.00 in0.0 mm 0.00 in0.0 mm 0.07 in1.8 mm
03:31 PM 48.0°F8.9°C -168.0°F-111.1°C - Calm Calm -- 29.55 in1000.7 mb 0.00 in0.0 mm 0.00 in0.0 mm 0.07 in1.8 mm
03:46 PM 47.3°F8.5°C -168.1°F-111.2°C - Calm Calm -- 29.55 in1000.7 mb 0.00 in0.0 mm 0.00 in0.0 mm 0.07 in1.8 mm
04:01 PM 46.8°F8.2°C -168.1°F-111.2°C - Calm Calm -- 29.55 in1000.7 mb 0.00 in0.0 mm 0.00 in0.0 mm 0.07 in1.8 mm
04:16 PM 46.6°F8.1°C -168.1°F-111.2°C - Calm Calm -- 29.54 in1000.3 mb 0.00 in0.0 mm 0.00 in0.0 mm 0.07 in1.8 mm
04:31 PM 46.0°F7.8°C -168.2°F-111.2°C - Calm Calm -- 29.54 in1000.3 mb 0.00 in0.0 mm 0.00 in0.0 mm 0.07 in1.8 mm
04:46 PM 45.7°F7.6°C -168.2°F-111.2°C - Calm Calm -- 29.54 in1000.3 mb 0.00 in0.0 mm 0.00 in0.0 mm 0.07 in1.8 mm
05:01 PM 46.0°F7.8°C -168.2°F-111.2°C - Calm Calm -- 29.53 in1000.0 mb 0.00 in0.0 mm 0.00 in0.0 mm 0.07 in1.8 mm
05:16 PM 46.0°F7.8°C -168.2°F-111.2°C - Calm Calm -- 29.53 in1000.0 mb 0.00 in0.0 mm 0.00 in0.0 mm 0.07 in1.8 mm
05:31 PM 45.5°F7.5°C -168.3°F-111.3°C - Calm Calm -- 29.53 in1000.0 mb 0.00 in0.0 mm 0.00 in0.0 mm 0.07 in1.8 mm
05:46 PM 44.8°F7.1°C -168.3°F-111.3°C - Calm Calm -- 29.53 in1000.0 mb 0.00 in0.0 mm 0.00 in0.0 mm 0.07 in1.8 mm
06:01 PM 43.5°F6.4°C -168.4°F-111.3°C - Calm Calm -- 29.53 in1000.0 mb 0.00 in0.0 mm 0.00 in0.0 mm 0.07 in1.8 mm
06:16 PM 42.6°F5.9°C -168.5°F-111.4°C - Calm Calm 0.6 mph1.0 kmh 29.53 in1000.0 mb 0.00 in0.0 mm 0.00 in0.0 mm 0.07 in1.8 mm
06:31 PM 42.3°F5.7°C -168.6°F-111.4°C - Calm Calm -- 29.52 in999.7 mb 0.00 in0.0 mm 0.00 in0.0 mm 0.07 in1.8 mm
06:46 PM 41.7°F5.4°C -168.6°F-111.4°C - Calm Calm 0.6 mph1.0 kmh 29.52 in999.7 mb 0.00 in0.0 mm 0.00 in0.0 mm 0.07 in1.8 mm
07:01 PM 41.5°F5.3°C -168.6°F-111.4°C - Calm Calm -- 29.52 in999.7 mb 0.00 in0.0 mm 0.00 in0.0 mm 0.07 in1.8 mm
07:16 PM 41.4°F5.2°C -168.7°F-111.5°C - Calm Calm -- 29.52 in999.7 mb 0.00 in0.0 mm 0.00 in0.0 mm 0.07 in1.8 mm
07:31 PM 41.0°F5.0°C -168.7°F-111.5°C - Calm Calm -- 29.51 in999.3 mb 0.00 in0.0 mm 0.00 in0.0 mm 0.07 in1.8 mm
07:46 PM 40.8°F4.9°C -168.7°F-111.5°C - Calm Calm -- 29.51 in999.3 mb 0.00 in0.0 mm 0.00 in0.0 mm 0.07 in1.8 mm
08:01 PM 40.8°F4.9°C -168.7°F-111.5°C - Calm Calm -- 29.50 in999.0 mb 0.00 in0.0 mm 0.00 in0.0 mm 0.07 in1.8 mm
08:16 PM 40.5°F4.7°C -168.8°F-111.6°C - Calm Calm 0.6 mph1.0 kmh 29.50 in999.0 mb 0.00 in0.0 mm 0.00 in0.0 mm 0.07 in1.8 mm
08:31 PM 40.5°F4.7°C -168.8°F-111.6°C - Calm Calm -- 29.49 in998.6 mb 0.00 in0.0 mm 0.00 in0.0 mm 0.07 in1.8 mm
08:46 PM 40.3°F4.6°C -168.8°F-111.6°C - Calm Calm -- 29.49 in998.6 mb 0.00 in0.0 mm 0.00 in0.0 mm 0.07 in1.8 mm
09:01 PM 40.3°F4.6°C -168.8°F-111.6°C - Calm Calm -- 29.49 in998.6 mb 0.00 in0.0 mm 0.00 in0.0 mm 0.07 in1.8 mm
09:16 PM 40.1°F4.5°C -168.8°F-111.6°C - Calm Calm -- 29.48 in998.3 mb 0.00 in0.0 mm 0.00 in0.0 mm 0.07 in1.8 mm
09:31 PM 39.6°F4.2°C -168.8°F-111.6°C - Calm Calm -- 29.48 in998.3 mb 0.00 in0.0 mm 0.00 in0.0 mm 0.07 in1.8 mm
09:46 PM 39.4°F4.1°C -168.9°F-111.6°C - Calm Calm 0.6 mph1.0 kmh 29.47 in998.0 mb 0.00 in0.0 mm 0.00 in0.0 mm 0.07 in1.8 mm
10:01 PM 39.4°F4.1°C -168.9°F-111.6°C - Calm Calm -- 29.47 in998.0 mb 0.00 in0.0 mm 0.00 in0.0 mm 0.07 in1.8 mm
10:16 PM 39.4°F4.1°C -168.9°F-111.6°C - Calm Calm -- 29.46 in997.6 mb 0.00 in0.0 mm 0.00 in0.0 mm 0.07 in1.8 mm
10:31 PM 39.2°F4.0°C -168.9°F-111.6°C - Calm Calm -- 29.47 in998.0 mb 0.00 in0.0 mm 0.00 in0.0 mm 0.07 in1.8 mm
10:46 PM 39.2°F4.0°C -168.9°F-111.6°C - Calm Calm -- 29.46 in997.6 mb 0.00 in0.0 mm 0.00 in0.0 mm 0.07 in1.8 mm
11:01 PM 39.2°F4.0°C -168.9°F-111.6°C - Calm Calm -- 29.46 in997.6 mb 0.00 in0.0 mm 0.00 in0.0 mm 0.07 in1.8 mm
11:16 PM 39.4°F4.1°C -168.9°F-111.6°C - Calm Calm 0.6 mph1.0 kmh 29.45 in997.3 mb 0.00 in0.0 mm 0.00 in0.0 mm 0.07 in1.8 mm
11:31 PM 39.6°F4.2°C -168.8°F-111.6°C - Calm Calm -- 29.44 in997.0 mb 0.00 in0.0 mm 0.00 in0.0 mm 0.07 in1.8 mm
11:46 PM 39.7°F4.3°C -168.8°F-111.6°C - Calm Calm -- 29.44 in997.0 mb 0.00 in0.0 mm 0.00 in0.0 mm 0.07 in1.8 mm